sensor_id;sensor_type;location;lat;lon;timestamp;pressure;altitude;pressure_sealevel;temperature;humidity
60874;BME280;46715;40.642;-7.920;2023-02-24T00:00:26;95804.41;;;3.03;85.44
60874;BME280;46715;40.642;-7.920;2023-02-24T00:02:30;95801.94;;;3.09;85.56
60874;BME280;46715;40.642;-7.920;2023-02-24T00:04:36;95801.38;;;3.06;85.64
60874;BME280;46715;40.642;-7.920;2023-02-24T00:06:40;95797.19;;;3.17;85.88
60874;BME280;46715;40.642;-7.920;2023-02-24T00:08:43;95794.50;;;3.24;85.66
60874;BME280;46715;40.642;-7.920;2023-02-24T00:10:43;95791.69;;;3.26;84.99
60874;BME280;46715;40.642;-7.920;2023-02-24T00:12:44;95781.47;;;3.31;82.71
60874;BME280;46715;40.642;-7.920;2023-02-24T00:14:46;95787.84;;;3.11;83.75
60874;BME280;46715;40.642;-7.920;2023-02-24T00:16:47;95788.63;;;3.00;83.95
60874;BME280;46715;40.642;-7.920;2023-02-24T00:18:48;95790.81;;;2.91;84.47
60874;BME280;46715;40.642;-7.920;2023-02-24T00:20:50;95783.06;;;2.91;85.17
60874;BME280;46715;40.642;-7.920;2023-02-24T00:22:56;95775.47;;;2.84;84.70
60874;BME280;46715;40.642;-7.920;2023-02-24T00:24:57;95781.88;;;2.82;85.33
60874;BME280;46715;40.642;-7.920;2023-02-24T00:27:03;95783.53;;;2.88;86.24
60874;BME280;46715;40.642;-7.920;2023-02-24T00:29:09;95779.72;;;2.90;86.46
60874;BME280;46715;40.642;-7.920;2023-02-24T00:31:13;95774.00;;;2.88;86.87
60874;BME280;46715;40.642;-7.920;2023-02-24T00:33:15;95775.69;;;2.95;86.51
60874;BME280;46715;40.642;-7.920;2023-02-24T00:35:16;95771.88;;;2.97;85.79
60874;BME280;46715;40.642;-7.920;2023-02-24T00:37:16;95780.88;;;2.83;86.54
60874;BME280;46715;40.642;-7.920;2023-02-24T00:39:23;95785.06;;;2.60;86.45
60874;BME280;46715;40.642;-7.920;2023-02-24T00:41:40;95782.75;;;2.47;86.57
60874;BME280;46715;40.642;-7.920;2023-02-24T00:43:44;95778.63;;;2.46;86.72
60874;BME280;46715;40.642;-7.920;2023-02-24T00:45:48;95781.09;;;2.41;87.65
60874;BME280;46715;40.642;-7.920;2023-02-24T00:47:51;95775.81;;;2.47;87.91
60874;BME280;46715;40.642;-7.920;2023-02-24T00:49:52;95767.88;;;2.49;88.02
60874;BME280;46715;40.642;-7.920;2023-02-24T00:51:53;95771.22;;;2.49;88.24
60874;BME280;46715;40.642;-7.920;2023-02-24T00:53:55;95771.56;;;2.53;88.41
60874;BME280;46715;40.642;-7.920;2023-02-24T00:56:00;95779.03;;;2.54;87.99
60874;BME280;46715;40.642;-7.920;2023-02-24T00:58:04;95776.47;;;2.54;88.45
60874;BME280;46715;40.642;-7.920;2023-02-24T01:00:08;95772.00;;;2.50;88.74
60874;BME280;46715;40.642;-7.920;2023-02-24T01:02:16;95775.25;;;2.45;88.24
60874;BME280;46715;40.642;-7.920;2023-02-24T01:04:18;95775.72;;;2.42;88.30
60874;BME280;46715;40.642;-7.920;2023-02-24T01:06:21;95770.34;;;2.44;88.44
60874;BME280;46715;40.642;-7.920;2023-02-24T01:08:22;95764.84;;;2.40;88.59
60874;BME280;46715;40.642;-7.920;2023-02-24T01:10:23;95765.88;;;2.39;87.91
60874;BME280;46715;40.642;-7.920;2023-02-24T01:12:28;95760.03;;;2.44;88.45
60874;BME280;46715;40.642;-7.920;2023-02-24T01:14:38;95765.00;;;2.33;87.81
60874;BME280;46715;40.642;-7.920;2023-02-24T01:16:41;95765.53;;;2.35;87.80
60874;BME280;46715;40.642;-7.920;2023-02-24T01:18:44;95772.50;;;2.35;87.68
60874;BME280;46715;40.642;-7.920;2023-02-24T01:20:47;95765.88;;;2.39;87.67
60874;BME280;46715;40.642;-7.920;2023-02-24T01:22:50;95763.19;;;2.46;87.40
60874;BME280;46715;40.642;-7.920;2023-02-24T01:24:52;95772.56;;;2.40;87.49
60874;BME280;46715;40.642;-7.920;2023-02-24T01:26:53;95757.69;;;2.42;87.98
60874;BME280;46715;40.642;-7.920;2023-02-24T01:28:56;95765.06;;;2.50;89.07
60874;BME280;46715;40.642;-7.920;2023-02-24T01:31:01;95763.91;;;2.58;89.39
60874;BME280;46715;40.642;-7.920;2023-02-24T01:33:02;95763.16;;;2.58;88.57
60874;BME280;46715;40.642;-7.920;2023-02-24T01:35:03;95769.88;;;2.59;88.49
60874;BME280;46715;40.642;-7.920;2023-02-24T01:37:04;95762.31;;;2.69;87.67
60874;BME280;46715;40.642;-7.920;2023-02-24T01:39:06;95764.03;;;2.63;86.76
60874;BME280;46715;40.642;-7.920;2023-02-24T01:41:13;95766.41;;;2.53;87.20
60874;BME280;46715;40.642;-7.920;2023-02-24T01:43:16;95764.19;;;2.45;87.72
60874;BME280;46715;40.642;-7.920;2023-02-24T01:45:23;95761.28;;;2.41;87.87
60874;BME280;46715;40.642;-7.920;2023-02-24T01:47:25;95762.19;;;2.35;88.07
60874;BME280;46715;40.642;-7.920;2023-02-24T01:49:36;95756.34;;;2.39;88.05
60874;BME280;46715;40.642;-7.920;2023-02-24T01:51:44;95754.25;;;2.36;89.11
60874;BME280;46715;40.642;-7.920;2023-02-24T01:53:47;95758.25;;;2.44;89.44
60874;BME280;46715;40.642;-7.920;2023-02-24T01:55:49;95759.69;;;2.52;89.62
60874;BME280;46715;40.642;-7.920;2023-02-24T01:57:50;95763.03;;;2.52;90.25
60874;BME280;46715;40.642;-7.920;2023-02-24T01:59:53;95757.88;;;2.52;90.15
60874;BME280;46715;40.642;-7.920;2023-02-24T02:02:14;95751.38;;;2.62;90.44
60874;BME280;46715;40.642;-7.920;2023-02-24T02:04:22;95746.56;;;2.65;90.77
60874;BME280;46715;40.642;-7.920;2023-02-24T02:06:26;95745.28;;;2.80;91.75
60874;BME280;46715;40.642;-7.920;2023-02-24T02:08:28;95741.19;;;2.96;91.34
60874;BME280;46715;40.642;-7.920;2023-02-24T02:10:29;95748.47;;;3.16;90.48
60874;BME280;46715;40.642;-7.920;2023-02-24T02:12:34;95741.84;;;3.20;89.83
60874;BME280;46715;40.642;-7.920;2023-02-24T02:14:47;95747.00;;;3.03;90.11
60874;BME280;46715;40.642;-7.920;2023-02-24T02:17:13;95737.19;;;2.88;90.87
60874;BME280;46715;40.642;-7.920;2023-02-24T02:25:24;95735.44;;;2.77;90.30
60874;BME280;46715;40.642;-7.920;2023-02-24T02:30:17;95726.06;;;2.42;90.66
60874;BME280;46715;40.642;-7.920;2023-02-24T02:32:49;95727.41;;;2.32;91.10
60874;BME280;46715;40.642;-7.920;2023-02-24T02:37:49;95723.50;;;2.30;91.09
60874;BME280;46715;40.642;-7.920;2023-02-24T02:44:37;95718.34;;;2.42;90.92
60874;BME280;46715;40.642;-7.920;2023-02-24T02:46:52;95711.72;;;2.46;90.35
60874;BME280;46715;40.642;-7.920;2023-02-24T02:48:58;95707.72;;;2.38;89.93
60874;BME280;46715;40.642;-7.920;2023-02-24T02:51:06;95710.75;;;2.23;90.85
60874;BME280;46715;40.642;-7.920;2023-02-24T02:53:18;95705.19;;;2.14;90.39
60874;BME280;46715;40.642;-7.920;2023-02-24T02:57:48;95705.31;;;2.08;91.09
60874;BME280;46715;40.642;-7.920;2023-02-24T03:02:09;95701.63;;;2.03;90.67
60874;BME280;46715;40.642;-7.920;2023-02-24T03:04:16;95703.66;;;2.01;90.92
60874;BME280;46715;40.642;-7.920;2023-02-24T03:06:30;95710.03;;;1.99;91.31
60874;BME280;46715;40.642;-7.920;2023-02-24T03:08:35;95701.50;;;1.98;91.77
60874;BME280;46715;40.642;-7.920;2023-02-24T03:10:39;95692.25;;;1.97;91.24
60874;BME280;46715;40.642;-7.920;2023-02-24T03:12:46;95702.19;;;1.94;91.64
60874;BME280;46715;40.642;-7.920;2023-02-24T03:14:59;95700.19;;;1.96;91.68
60874;BME280;46715;40.642;-7.920;2023-02-24T03:17:06;95703.97;;;2.05;91.36
60874;BME280;46715;40.642;-7.920;2023-02-24T03:19:12;95699.47;;;2.12;90.19
60874;BME280;46715;40.642;-7.920;2023-02-24T03:21:37;95691.97;;;2.11;90.78
60874;BME280;46715;40.642;-7.920;2023-02-24T03:23:43;95686.03;;;2.22;90.57
60874;BME280;46715;40.642;-7.920;2023-02-24T03:25:52;95679.69;;;2.13;90.54
60874;BME280;46715;40.642;-7.920;2023-02-24T03:27:59;95687.41;;;2.01;91.37
60874;BME280;46715;40.642;-7.920;2023-02-24T03:32:29;95686.66;;;1.88;92.01
60874;BME280;46715;40.642;-7.920;2023-02-24T03:34:58;95675.94;;;1.92;91.71
60874;BME280;46715;40.642;-7.920;2023-02-24T03:37:02;95679.28;;;1.92;91.42
60874;BME280;46715;40.642;-7.920;2023-02-24T03:39:05;95669.53;;;1.94;91.92
60874;BME280;46715;40.642;-7.920;2023-02-24T03:41:13;95669.47;;;1.89;91.46
60874;BME280;46715;40.642;-7.920;2023-02-24T03:43:28;95666.00;;;1.83;91.34
60874;BME280;46715;40.642;-7.920;2023-02-24T03:45:38;95666.19;;;1.82;91.16
60874;BME280;46715;40.642;-7.920;2023-02-24T03:47:40;95657.19;;;1.79;91.64
60874;BME280;46715;40.642;-7.920;2023-02-24T03:49:42;95658.63;;;1.75;91.44
60874;BME280;46715;40.642;-7.920;2023-02-24T03:52:18;95655.50;;;1.73;91.30
60874;BME280;46715;40.642;-7.920;2023-02-24T03:59:49;95644.66;;;1.71;91.18
60874;BME280;46715;40.642;-7.920;2023-02-24T04:02:06;95654.50;;;1.74;91.40
60874;BME280;46715;40.642;-7.920;2023-02-24T04:07:42;95650.59;;;1.60;91.25
60874;BME280;46715;40.642;-7.920;2023-02-24T04:10:11;95650.72;;;1.53;91.58
60874;BME280;46715;40.642;-7.920;2023-02-24T04:12:26;95655.28;;;1.51;91.56
60874;BME280;46715;40.642;-7.920;2023-02-24T04:14:59;95652.94;;;1.49;91.64
60874;BME280;46715;40.642;-7.920;2023-02-24T04:17:07;95651.50;;;1.53;91.42
60874;BME280;46715;40.642;-7.920;2023-02-24T04:19:16;95653.06;;;1.55;91.26
60874;BME280;46715;40.642;-7.920;2023-02-24T04:21:20;95634.72;;;1.51;91.55
60874;BME280;46715;40.642;-7.920;2023-02-24T04:23:37;95646.69;;;1.57;91.85
60874;BME280;46715;40.642;-7.920;2023-02-24T04:25:43;95651.25;;;1.55;91.76
60874;BME280;46715;40.642;-7.920;2023-02-24T04:27:46;95647.25;;;1.59;91.77
60874;BME280;46715;40.642;-7.920;2023-02-24T04:29:53;95654.50;;;1.62;91.93
60874;BME280;46715;40.642;-7.920;2023-02-24T04:32:01;95651.91;;;1.62;91.37
60874;BME280;46715;40.642;-7.920;2023-02-24T04:34:03;95651.84;;;1.57;91.29
60874;BME280;46715;40.642;-7.920;2023-02-24T04:36:12;95652.94;;;1.49;91.01
60874;BME280;46715;40.642;-7.920;2023-02-24T04:38:13;95648.94;;;1.42;90.91
60874;BME280;46715;40.642;-7.920;2023-02-24T04:40:16;95650.72;;;1.29;91.35
60874;BME280;46715;40.642;-7.920;2023-02-24T04:42:17;95653.63;;;1.21;90.73
60874;BME280;46715;40.642;-7.920;2023-02-24T04:44:20;95648.56;;;1.14;91.29
60874;BME280;46715;40.642;-7.920;2023-02-24T04:46:21;95643.88;;;1.11;90.96
60874;BME280;46715;40.642;-7.920;2023-02-24T04:48:23;95641.19;;;1.18;91.67
60874;BME280;46715;40.642;-7.920;2023-02-24T04:50:24;95642.31;;;1.22;91.84
60874;BME280;46715;40.642;-7.920;2023-02-24T04:52:25;95643.00;;;1.17;91.94
60874;BME280;46715;40.642;-7.920;2023-02-24T04:54:26;95646.69;;;1.22;91.86
60874;BME280;46715;40.642;-7.920;2023-02-24T04:56:29;95642.88;;;1.24;91.42
60874;BME280;46715;40.642;-7.920;2023-02-24T04:58:29;95641.88;;;1.25;91.27
60874;BME280;46715;40.642;-7.920;2023-02-24T05:00:30;95639.97;;;1.21;90.92
60874;BME280;46715;40.642;-7.920;2023-02-24T05:02:34;95643.56;;;1.19;91.40
60874;BME280;46715;40.642;-7.920;2023-02-24T05:04:38;95630.03;;;1.12;91.18
60874;BME280;46715;40.642;-7.920;2023-02-24T05:06:40;95643.88;;;1.11;91.38
60874;BME280;46715;40.642;-7.920;2023-02-24T05:08:44;95630.94;;;1.06;91.19
60874;BME280;46715;40.642;-7.920;2023-02-24T05:10:45;95635.47;;;1.04;91.49
60874;BME280;46715;40.642;-7.920;2023-02-24T05:12:46;95633.94;;;1.03;91.60
60874;BME280;46715;40.642;-7.920;2023-02-24T05:14:47;95631.03;;;0.99;91.15
60874;BME280;46715;40.642;-7.920;2023-02-24T05:16:49;95630.91;;;0.94;91.15
60874;BME280;46715;40.642;-7.920;2023-02-24T05:18:50;95637.81;;;0.94;91.12
60874;BME280;46715;40.642;-7.920;2023-02-24T05:21:13;95641.16;;;0.94;91.03
60874;BME280;46715;40.642;-7.920;2023-02-24T05:23:41;95637.16;;;0.98;91.15
60874;BME280;46715;40.642;-7.920;2023-02-24T05:25:45;95635.72;;;1.02;91.06
60874;BME280;46715;40.642;-7.920;2023-02-24T05:27:46;95629.03;;;1.01;91.45
60874;BME280;46715;40.642;-7.920;2023-02-24T05:29:47;95637.16;;;0.98;91.61
60874;BME280;46715;40.642;-7.920;2023-02-24T05:31:48;95629.91;;;0.95;91.69
60874;BME280;46715;40.642;-7.920;2023-02-24T05:33:51;95627.09;;;0.97;91.98
60874;BME280;46715;40.642;-7.920;2023-02-24T05:35:54;95633.38;;;1.01;91.95
60874;BME280;46715;40.642;-7.920;2023-02-24T05:37:56;95626.13;;;0.98;91.62
60874;BME280;46715;40.642;-7.920;2023-02-24T05:39:58;95631.13;;;0.93;92.14
60874;BME280;46715;40.642;-7.920;2023-02-24T05:41:59;95635.25;;;0.94;91.57
60874;BME280;46715;40.642;-7.920;2023-02-24T05:44:07;95637.38;;;0.97;91.51
60874;BME280;46715;40.642;-7.920;2023-02-24T05:46:10;95633.03;;;0.97;91.71
60874;BME280;46715;40.642;-7.920;2023-02-24T05:48:13;95632.47;;;0.95;91.36
60874;BME280;46715;40.642;-7.920;2023-02-24T05:50:14;95631.69;;;0.95;91.75
60874;BME280;46715;40.642;-7.920;2023-02-24T05:52:16;95634.50;;;0.93;92.04
60874;BME280;46715;40.642;-7.920;2023-02-24T05:54:18;95633.69;;;0.93;91.47
60874;BME280;46715;40.642;-7.920;2023-02-24T05:56:19;95640.38;;;0.94;91.72
60874;BME280;46715;40.642;-7.920;2023-02-24T05:58:20;95636.38;;;0.98;92.50
60874;BME280;46715;40.642;-7.920;2023-02-24T06:00:23;95640.75;;;0.97;92.09
60874;BME280;46715;40.642;-7.920;2023-02-24T06:02:25;95641.97;;;0.95;92.75
60874;BME280;46715;40.642;-7.920;2023-02-24T06:04:38;95640.16;;;0.95;92.96
60874;BME280;46715;40.642;-7.920;2023-02-24T06:06:40;95637.16;;;0.98;92.92
60874;BME280;46715;40.642;-7.920;2023-02-24T06:08:42;95639.72;;;0.98;92.90
60874;BME280;46715;40.642;-7.920;2023-02-24T06:10:49;95638.72;;;0.99;93.41
60874;BME280;46715;40.642;-7.920;2023-02-24T06:12:51;95633.47;;;0.94;93.55
60874;BME280;46715;40.642;-7.920;2023-02-24T06:14:51;95634.91;;;0.90;93.18
60874;BME280;46715;40.642;-7.920;2023-02-24T06:16:52;95630.22;;;0.87;93.17
60874;BME280;46715;40.642;-7.920;2023-02-24T06:18:54;95631.91;;;0.93;93.15
60874;BME280;46715;40.642;-7.920;2023-02-24T06:21:01;95632.03;;;0.98;91.78
60874;BME280;46715;40.642;-7.920;2023-02-24T06:23:02;95627.78;;;0.92;91.97
60874;BME280;46715;40.642;-7.920;2023-02-24T06:25:05;95638.06;;;0.92;91.46
60874;BME280;46715;40.642;-7.920;2023-02-24T06:27:06;95624.31;;;0.87;91.43
60874;BME280;46715;40.642;-7.920;2023-02-24T06:29:14;95625.75;;;0.82;91.83
60874;BME280;46715;40.642;-7.920;2023-02-24T06:31:15;95615.38;;;0.77;91.92
60874;BME280;46715;40.642;-7.920;2023-02-24T06:33:16;95627.41;;;0.77;91.85
60874;BME280;46715;40.642;-7.920;2023-02-24T06:35:17;95623.41;;;0.81;92.24
60874;BME280;46715;40.642;-7.920;2023-02-24T06:37:19;95619.28;;;0.80;91.81
60874;BME280;46715;40.642;-7.920;2023-02-24T06:39:21;95613.47;;;0.84;91.95
60874;BME280;46715;40.642;-7.920;2023-02-24T06:41:21;95616.72;;;0.80;91.65
60874;BME280;46715;40.642;-7.920;2023-02-24T06:43:22;95616.34;;;0.76;91.56
60874;BME280;46715;40.642;-7.920;2023-02-24T06:45:23;95618.03;;;0.71;91.67
60874;BME280;46715;40.642;-7.920;2023-02-24T06:47:25;95628.63;;;0.74;91.82
60874;BME280;46715;40.642;-7.920;2023-02-24T06:49:26;95613.59;;;0.78;91.93
60874;BME280;46715;40.642;-7.920;2023-02-24T06:51:28;95618.38;;;0.86;92.43
60874;BME280;46715;40.642;-7.920;2023-02-24T06:53:30;95619.72;;;0.89;92.38
60874;BME280;46715;40.642;-7.920;2023-02-24T06:55:35;95629.00;;;0.90;92.16
60874;BME280;46715;40.642;-7.920;2023-02-24T06:57:35;95623.66;;;0.91;92.90
60874;BME280;46715;40.642;-7.920;2023-02-24T06:59:36;95633.91;;;0.91;92.71
60874;BME280;46715;40.642;-7.920;2023-02-24T07:01:37;95631.03;;;0.88;92.42
60874;BME280;46715;40.642;-7.920;2023-02-24T07:03:45;95632.56;;;0.89;92.92
60874;BME280;46715;40.642;-7.920;2023-02-24T07:06:01;95627.03;;;1.15;93.93
60874;BME280;46715;40.642;-7.920;2023-02-24T07:08:21;95632.16;;;1.27;93.96
60874;BME280;46715;40.642;-7.920;2023-02-24T07:10:22;95638.75;;;1.35;93.75
60874;BME280;46715;40.642;-7.920;2023-02-24T07:12:23;95643.09;;;1.34;93.80
60874;BME280;46715;40.642;-7.920;2023-02-24T07:14:25;95642.88;;;1.36;94.00
60874;BME280;46715;40.642;-7.920;2023-02-24T07:16:27;95638.75;;;1.23;93.85
60874;BME280;46715;40.642;-7.920;2023-02-24T07:18:28;95650.81;;;1.23;93.70
60874;BME280;46715;40.642;-7.920;2023-02-24T07:20:30;95655.72;;;1.36;93.98
60874;BME280;46715;40.642;-7.920;2023-02-24T07:22:34;95653.72;;;1.38;94.08
60874;BME280;46715;40.642;-7.920;2023-02-24T07:24:36;95651.25;;;1.31;93.17
60874;BME280;46715;40.642;-7.920;2023-02-24T07:26:36;95661.22;;;1.28;93.46
60874;BME280;46715;40.642;-7.920;2023-02-24T07:28:43;95643.88;;;1.23;93.44
60874;BME280;46715;40.642;-7.920;2023-02-24T07:30:44;95657.31;;;1.25;93.12
60874;BME280;46715;40.642;-7.920;2023-02-24T07:32:45;95658.75;;;1.21;93.22
60874;BME280;46715;40.642;-7.920;2023-02-24T07:34:47;95663.44;;;1.24;93.03
60874;BME280;46715;40.642;-7.920;2023-02-24T07:36:52;95665.22;;;1.24;93.15
60874;BME280;46715;40.642;-7.920;2023-02-24T07:38:55;95668.91;;;1.28;93.51
60874;BME280;46715;40.642;-7.920;2023-02-24T07:40:57;95661.75;;;1.30;92.78
60874;BME280;46715;40.642;-7.920;2023-02-24T07:43:01;95664.91;;;1.32;92.29
60874;BME280;46715;40.642;-7.920;2023-02-24T07:45:02;95676.84;;;1.38;92.93
60874;BME280;46715;40.642;-7.920;2023-02-24T07:47:04;95668.47;;;1.78;93.41
60874;BME280;46715;40.642;-7.920;2023-02-24T07:49:14;95676.03;;;2.66;92.43
60874;BME280;46715;40.642;-7.920;2023-02-24T07:51:20;95676.19;;;3.73;89.52
60874;BME280;46715;40.642;-7.920;2023-02-24T07:53:22;95682.78;;;5.07;87.84
60874;BME280;46715;40.642;-7.920;2023-02-24T07:55:22;95684.09;;;6.38;83.90
60874;BME280;46715;40.642;-7.920;2023-02-24T07:57:25;95681.94;;;7.50;77.50
60874;BME280;46715;40.642;-7.920;2023-02-24T07:59:31;95686.63;;;8.39;72.65
60874;BME280;46715;40.642;-7.920;2023-02-24T08:01:36;95677.84;;;9.25;68.09
60874;BME280;46715;40.642;-7.920;2023-02-24T08:03:39;95688.38;;;9.97;64.97
60874;BME280;46715;40.642;-7.920;2023-02-24T08:05:41;95682.22;;;10.61;62.37
60874;BME280;46715;40.642;-7.920;2023-02-24T08:07:44;95671.47;;;11.19;58.92
60874;BME280;46715;40.642;-7.920;2023-02-24T08:09:49;95681.78;;;11.90;57.30
60874;BME280;46715;40.642;-7.920;2023-02-24T08:12:10;95675.00;;;12.45;54.70
60874;BME280;46715;40.642;-7.920;2023-02-24T08:14:23;95676.06;;;13.17;52.80
60874;BME280;46715;40.642;-7.920;2023-02-24T08:16:24;95678.00;;;13.48;49.10
60874;BME280;46715;40.642;-7.920;2023-02-24T08:18:38;95668.78;;;13.51;48.58
60874;BME280;46715;40.642;-7.920;2023-02-24T08:20:43;95668.72;;;13.73;47.37
60874;BME280;46715;40.642;-7.920;2023-02-24T08:22:52;95679.09;;;13.78;45.23
60874;BME280;46715;40.642;-7.920;2023-02-24T08:24:55;95681.53;;;14.15;44.55
60874;BME280;46715;40.642;-7.920;2023-02-24T08:27:00;95676.09;;;14.03;44.45
60874;BME280;46715;40.642;-7.920;2023-02-24T08:29:07;95679.63;;;13.67;44.77
60874;BME280;46715;40.642;-7.920;2023-02-24T08:31:08;95687.69;;;13.47;46.01
60874;BME280;46715;40.642;-7.920;2023-02-24T08:33:17;95675.88;;;13.59;45.24
60874;BME280;46715;40.642;-7.920;2023-02-24T08:35:28;95676.69;;;13.59;44.58
60874;BME280;46715;40.642;-7.920;2023-02-24T08:37:33;95688.88;;;13.64;45.24
60874;BME280;46715;40.642;-7.920;2023-02-24T08:39:39;95679.38;;;13.77;44.77
60874;BME280;46715;40.642;-7.920;2023-02-24T08:41:40;95689.63;;;13.96;44.04
60874;BME280;46715;40.642;-7.920;2023-02-24T08:43:54;95687.22;;;13.45;44.21
60874;BME280;46715;40.642;-7.920;2023-02-24T08:46:17;95684.03;;;14.20;43.22
60874;BME280;46715;40.642;-7.920;2023-02-24T08:48:28;95682.69;;;14.49;43.07
60874;BME280;46715;40.642;-7.920;2023-02-24T08:50:37;95686.81;;;14.24;43.29
60874;BME280;46715;40.642;-7.920;2023-02-24T08:52:39;95678.25;;;14.01;43.86
60874;BME280;46715;40.642;-7.920;2023-02-24T08:54:40;95680.00;;;14.23;43.68
60874;BME280;46715;40.642;-7.920;2023-02-24T08:56:48;95681.75;;;13.87;43.71
60874;BME280;46715;40.642;-7.920;2023-02-24T08:59:12;95674.66;;;13.88;44.24
60874;BME280;46715;40.642;-7.920;2023-02-24T09:01:30;95685.25;;;13.28;45.22
60874;BME280;46715;40.642;-7.920;2023-02-24T09:03:34;95686.91;;;13.24;46.15
60874;BME280;46715;40.642;-7.920;2023-02-24T09:05:35;95682.25;;;13.21;46.07
60874;BME280;46715;40.642;-7.920;2023-02-24T09:07:39;95697.19;;;13.21;46.37
60874;BME280;46715;40.642;-7.920;2023-02-24T09:09:44;95695.69;;;13.06;46.92
60874;BME280;46715;40.642;-7.920;2023-02-24T09:11:47;95688.09;;;13.95;45.63
60874;BME280;46715;40.642;-7.920;2023-02-24T09:13:49;95680.31;;;14.21;44.92
60874;BME280;46715;40.642;-7.920;2023-02-24T09:15:59;95689.03;;;14.48;43.79
60874;BME280;46715;40.642;-7.920;2023-02-24T09:18:00;95679.69;;;14.91;43.44
60874;BME280;46715;40.642;-7.920;2023-02-24T09:22:57;95668.75;;;15.71;42.12
60874;BME280;46715;40.642;-7.920;2023-02-24T09:25:12;95672.94;;;15.81;41.36
60874;BME280;46715;40.642;-7.920;2023-02-24T09:27:21;95661.44;;;15.94;41.16
60874;BME280;46715;40.642;-7.920;2023-02-24T09:29:28;95669.22;;;15.82;41.81
60874;BME280;46715;40.642;-7.920;2023-02-24T09:31:35;95674.06;;;16.10;41.48
60874;BME280;46715;40.642;-7.920;2023-02-24T09:33:54;95677.38;;;16.28;41.21
60874;BME280;46715;40.642;-7.920;2023-02-24T09:36:03;95677.44;;;15.80;41.44
60874;BME280;46715;40.642;-7.920;2023-02-24T09:38:10;95654.78;;;16.57;40.68
60874;BME280;46715;40.642;-7.920;2023-02-24T09:40:19;95650.72;;;16.80;40.02
60874;BME280;46715;40.642;-7.920;2023-02-24T09:42:22;95666.94;;;16.40;40.39
60874;BME280;46715;40.642;-7.920;2023-02-24T09:44:42;95649.97;;;17.01;39.60
60874;BME280;46715;40.642;-7.920;2023-02-24T09:46:50;95652.44;;;17.40;37.74
60874;BME280;46715;40.642;-7.920;2023-02-24T09:49:15;95660.91;;;16.91;39.36
60874;BME280;46715;40.642;-7.920;2023-02-24T09:51:16;95661.56;;;17.42;37.83
60874;BME280;46715;40.642;-7.920;2023-02-24T09:53:29;95659.16;;;17.16;38.85
60874;BME280;46715;40.642;-7.920;2023-02-24T09:55:51;95648.81;;;18.02;37.39
60874;BME280;46715;40.642;-7.920;2023-02-24T10:00:39;95667.13;;;18.61;36.66
60874;BME280;46715;40.642;-7.920;2023-02-24T10:02:51;95658.53;;;18.64;35.90
60874;BME280;46715;40.642;-7.920;2023-02-24T10:05:06;95653.53;;;18.09;36.71
60874;BME280;46715;40.642;-7.920;2023-02-24T10:07:28;95655.72;;;17.49;37.97
60874;BME280;46715;40.642;-7.920;2023-02-24T10:09:36;95678.00;;;16.54;39.63
60874;BME280;46715;40.642;-7.920;2023-02-24T10:11:48;95658.34;;;15.36;41.76
60874;BME280;46715;40.642;-7.920;2023-02-24T10:13:54;95667.56;;;13.88;44.56
60874;BME280;46715;40.642;-7.920;2023-02-24T10:19:43;95679.75;;;11.40;50.05
60874;BME280;46715;40.642;-7.920;2023-02-24T10:21:38;95670.25;;;11.31;49.42
60874;BME280;46715;40.642;-7.920;2023-02-24T10:24:28;95675.59;;;11.06;50.82
60874;BME280;46715;40.642;-7.920;2023-02-24T10:26:42;95689.09;;;10.89;51.42
60874;BME280;46715;40.642;-7.920;2023-02-24T10:29:19;95690.38;;;10.92;51.95
60874;BME280;46715;40.642;-7.920;2023-02-24T10:31:50;95674.16;;;10.95;52.14
60874;BME280;46715;40.642;-7.920;2023-02-24T10:34:13;95672.53;;;11.18;51.70
60874;BME280;46715;40.642;-7.920;2023-02-24T10:36:21;95677.22;;;11.35;51.05
60874;BME280;46715;40.642;-7.920;2023-02-24T10:38:30;95687.13;;;10.81;50.21
60874;BME280;46715;40.642;-7.920;2023-02-24T10:40:43;95680.22;;;10.90;50.81
60874;BME280;46715;40.642;-7.920;2023-02-24T10:42:46;95695.53;;;10.78;51.74
60874;BME280;46715;40.642;-7.920;2023-02-24T10:44:50;95684.69;;;10.71;51.72
60874;BME280;46715;40.642;-7.920;2023-02-24T10:47:05;95692.81;;;10.45;53.20
60874;BME280;46715;40.642;-7.920;2023-02-24T10:49:19;95693.88;;;10.63;53.16
60874;BME280;46715;40.642;-7.920;2023-02-24T10:51:22;95679.03;;;10.64;54.09
60874;BME280;46715;40.642;-7.920;2023-02-24T10:53:31;95674.03;;;10.48;53.26
60874;BME280;46715;40.642;-7.920;2023-02-24T10:55:42;95686.31;;;10.86;53.07
60874;BME280;46715;40.642;-7.920;2023-02-24T10:57:59;95678.47;;;10.86;53.38
60874;BME280;46715;40.642;-7.920;2023-02-24T11:00:16;95689.81;;;10.95;52.75
60874;BME280;46715;40.642;-7.920;2023-02-24T11:02:21;95675.13;;;10.99;52.32
60874;BME280;46715;40.642;-7.920;2023-02-24T11:04:36;95686.22;;;11.10;52.52
60874;BME280;46715;40.642;-7.920;2023-02-24T11:07:05;95684.59;;;11.14;53.61
60874;BME280;46715;40.642;-7.920;2023-02-24T11:09:24;95679.97;;;11.44;52.73
60874;BME280;46715;40.642;-7.920;2023-02-24T11:11:33;95683.41;;;11.39;51.65
60874;BME280;46715;40.642;-7.920;2023-02-24T11:13:59;95676.19;;;11.17;51.53
60874;BME280;46715;40.642;-7.920;2023-02-24T11:16:20;95681.22;;;11.14;51.96
60874;BME280;46715;40.642;-7.920;2023-02-24T11:18:45;95677.78;;;11.32;50.51
60874;BME280;46715;40.642;-7.920;2023-02-24T11:20:53;95670.34;;;11.39;50.86
60874;BME280;46715;40.642;-7.920;2023-02-24T11:22:55;95673.22;;;11.71;49.51
60874;BME280;46715;40.642;-7.920;2023-02-24T11:25:03;95676.63;;;11.71;48.33
60874;BME280;46715;40.642;-7.920;2023-02-24T11:27:06;95667.13;;;11.62;47.93
60874;BME280;46715;40.642;-7.920;2023-02-24T11:30:15;95668.81;;;11.05;50.15
60874;BME280;46715;40.642;-7.920;2023-02-24T11:34:59;95656.88;;;11.18;51.07
60874;BME280;46715;40.642;-7.920;2023-02-24T11:41:55;95672.88;;;11.12;49.16
60874;BME280;46715;40.642;-7.920;2023-02-24T11:44:12;95668.53;;;11.40;48.52
60874;BME280;46715;40.642;-7.920;2023-02-24T11:46:19;95660.38;;;11.74;46.74
60874;BME280;46715;40.642;-7.920;2023-02-24T11:48:26;95654.28;;;11.79;47.31
60874;BME280;46715;40.642;-7.920;2023-02-24T11:50:49;95656.19;;;12.06;47.68
60874;BME280;46715;40.642;-7.920;2023-02-24T11:52:55;95654.63;;;12.05;46.71
60874;BME280;46715;40.642;-7.920;2023-02-24T11:54:58;95638.00;;;11.54;46.34
60874;BME280;46715;40.642;-7.920;2023-02-24T11:57:02;95648.44;;;11.54;47.16
60874;BME280;46715;40.642;-7.920;2023-02-24T11:59:11;95645.88;;;11.82;49.00